sensor_id;sensor_type;location;lat;lon;timestamp;temperature;humidity
55151;DHT22;41041;43.162;20.538;2022-08-01T00:00:20;461.10;2304.00
55151;DHT22;41041;43.162;20.538;2022-08-01T00:06:21;461.10;2304.00
55151;DHT22;41041;43.162;20.538;2022-08-01T00:12:15;435.90;2329.60
55151;DHT22;41041;43.162;20.538;2022-08-01T00:18:03;460.90;2329.60
55151;DHT22;41041;43.162;20.538;2022-08-01T00:20:29;461.10;2304.00
55151;DHT22;41041;43.162;20.538;2022-08-01T00:22:55;461.10;2304.00
55151;DHT22;41041;43.162;20.538;2022-08-01T00:28:46;461.30;2252.80
55151;DHT22;41041;43.162;20.538;2022-08-01T00:34:52;460.90;2329.60
55151;DHT22;41041;43.162;20.538;2022-08-01T00:40:42;461.10;2278.40
55151;DHT22;41041;43.162;20.538;2022-08-01T00:46:35;436.10;2278.40
55151;DHT22;41041;43.162;20.538;2022-08-01T00:52:54;436.10;2278.40
55151;DHT22;41041;43.162;20.538;2022-08-01T00:55:24;436.00;2278.40
55151;DHT22;41041;43.162;20.538;2022-08-01T00:57:50;436.10;2278.40
55151;DHT22;41041;43.162;20.538;2022-08-01T01:00:18;436.00;2278.40
55151;DHT22;41041;43.162;20.538;2022-08-01T01:02:44;436.00;2304.00
55151;DHT22;41041;43.162;20.538;2022-08-01T01:05:10;436.00;2278.40
55151;DHT22;41041;43.162;20.538;2022-08-01T01:34:59;435.80;2278.40
55151;DHT22;41041;43.162;20.538;2022-08-01T01:37:26;435.70;2278.40
55151;DHT22;41041;43.162;20.538;2022-08-01T01:39:53;435.70;2304.00
55151;DHT22;41041;43.162;20.538;2022-08-01T01:42:20;435.70;2304.00
55151;DHT22;41041;43.162;20.538;2022-08-01T01:48:09;435.70;2278.40
55151;DHT22;41041;43.162;20.538;2022-08-01T01:50:36;435.50;2304.00
55151;DHT22;41041;43.162;20.538;2022-08-01T01:53:04;435.40;2304.00
55151;DHT22;41041;43.162;20.538;2022-08-01T01:55:31;435.50;2304.00
55151;DHT22;41041;43.162;20.538;2022-08-01T01:57:59;435.50;2304.00
55151;DHT22;41041;43.162;20.538;2022-08-01T02:00:26;435.60;2278.40
55151;DHT22;41041;43.162;20.538;2022-08-01T02:06:25;435.50;2278.40
55151;DHT22;41041;43.162;20.538;2022-08-01T02:12:21;435.50;2304.00
55151;DHT22;41041;43.162;20.538;2022-08-01T02:18:10;435.40;2278.40
55151;DHT22;41041;43.162;20.538;2022-08-01T02:20:38;435.30;2304.00
55151;DHT22;41041;43.162;20.538;2022-08-01T02:23:11;435.20;2304.00
55151;DHT22;41041;43.162;20.538;2022-08-01T02:29:04;410.40;2329.60
55151;DHT22;41041;43.162;20.538;2022-08-01T02:31:32;410.50;2329.60
55151;DHT22;41041;43.162;20.538;2022-08-01T02:34:06;410.40;2329.60
55151;DHT22;41041;43.162;20.538;2022-08-01T02:36:36;410.50;2304.00
55151;DHT22;41041;43.162;20.538;2022-08-01T02:39:13;410.30;2329.60
55151;DHT22;41041;43.162;20.538;2022-08-01T02:41:44;410.30;2329.60
55151;DHT22;41041;43.162;20.538;2022-08-01T02:47:22;410.40;2329.60
55151;DHT22;41041;43.162;20.538;2022-08-01T02:53:25;410.30;2304.00
55151;DHT22;41041;43.162;20.538;2022-08-01T02:59:21;410.40;2304.00
55151;DHT22;41041;43.162;20.538;2022-08-01T03:05:14;410.00;2329.60
55151;DHT22;41041;43.162;20.538;2022-08-01T03:07:41;410.20;2329.60
55151;DHT22;41041;43.162;20.538;2022-08-01T03:10:08;410.20;2329.60
55151;DHT22;41041;43.162;20.538;2022-08-01T03:15:57;409.60;2355.20
55151;DHT22;41041;43.162;20.538;2022-08-01T03:18:24;384.90;2329.60
55151;DHT22;41041;43.162;20.538;2022-08-01T03:20:52;409.70;2355.20
55151;DHT22;41041;43.162;20.538;2022-08-01T03:23:20;410.00;2329.60
55151;DHT22;41041;43.162;20.538;2022-08-01T03:29:21;410.10;2329.60
55151;DHT22;41041;43.162;20.538;2022-08-01T03:35:34;410.20;2304.00
55151;DHT22;41041;43.162;20.538;2022-08-01T03:38:02;409.90;2329.60
55151;DHT22;41041;43.162;20.538;2022-08-01T03:40:35;409.90;2355.20
55151;DHT22;41041;43.162;20.538;2022-08-01T03:43:07;410.00;2329.60
55151;DHT22;41041;43.162;20.538;2022-08-01T03:46:01;410.10;2329.60
55151;DHT22;41041;43.162;20.538;2022-08-01T03:48:29;409.90;2355.20
55151;DHT22;41041;43.162;20.538;2022-08-01T03:51:02;409.90;2355.20
55151;DHT22;41041;43.162;20.538;2022-08-01T03:53:30;410.00;2304.00
55151;DHT22;41041;43.162;20.538;2022-08-01T03:56:00;410.10;2278.40
55151;DHT22;41041;43.162;20.538;2022-08-01T03:58:28;410.10;2304.00
55151;DHT22;41041;43.162;20.538;2022-08-01T04:00:54;384.90;2329.60
55151;DHT22;41041;43.162;20.538;2022-08-01T04:03:20;409.80;2355.20
55151;DHT22;41041;43.162;20.538;2022-08-01T04:05:46;410.00;2329.60
55151;DHT22;41041;43.162;20.538;2022-08-01T04:11:34;410.00;2329.60
55151;DHT22;41041;43.162;20.538;2022-08-01T04:17:23;410.00;2329.60
55151;DHT22;41041;43.162;20.538;2022-08-01T04:19:50;384.90;2329.60
55151;DHT22;41041;43.162;20.538;2022-08-01T04:22:16;384.90;2329.60
55151;DHT22;41041;43.162;20.538;2022-08-01T04:24:48;409.70;2355.20
55151;DHT22;41041;43.162;20.538;2022-08-01T04:27:19;409.90;2329.60
55151;DHT22;41041;43.162;20.538;2022-08-01T04:33:10;410.10;2329.60
55151;DHT22;41041;43.162;20.538;2022-08-01T04:35:38;410.10;2304.00
55151;DHT22;41041;43.162;20.538;2022-08-01T04:38:07;410.10;2304.00
55151;DHT22;41041;43.162;20.538;2022-08-01T04:40:35;410.20;2304.00
55151;DHT22;41041;43.162;20.538;2022-08-01T04:43:02;410.30;2304.00
55151;DHT22;41041;43.162;20.538;2022-08-01T04:45:28;410.30;2329.60
55151;DHT22;41041;43.162;20.538;2022-08-01T04:47:54;410.40;2304.00
55151;DHT22;41041;43.162;20.538;2022-08-01T04:50:30;410.20;2355.20
55151;DHT22;41041;43.162;20.538;2022-08-01T04:52:57;410.30;2304.00
55151;DHT22;41041;43.162;20.538;2022-08-01T04:55:22;410.30;2304.00
55151;DHT22;41041;43.162;20.538;2022-08-01T04:58:04;410.40;2329.60
55151;DHT22;41041;43.162;20.538;2022-08-01T05:00:30;410.50;2304.00
55151;DHT22;41041;43.162;20.538;2022-08-01T05:02:56;410.30;2329.60
55151;DHT22;41041;43.162;20.538;2022-08-01T05:05:22;410.30;2329.60
55151;DHT22;41041;43.162;20.538;2022-08-01T05:07:47;410.20;2355.20
55151;DHT22;41041;43.162;20.538;2022-08-01T05:10:13;410.10;2355.20
55151;DHT22;41041;43.162;20.538;2022-08-01T05:15:52;410.40;2355.20
55151;DHT22;41041;43.162;20.538;2022-08-01T05:18:18;410.50;2355.20
55151;DHT22;41041;43.162;20.538;2022-08-01T05:20:44;410.40;2355.20
55151;DHT22;41041;43.162;20.538;2022-08-01T05:23:10;410.50;2355.20
55151;DHT22;41041;43.162;20.538;2022-08-01T05:25:37;410.50;2355.20
55151;DHT22;41041;43.162;20.538;2022-08-01T05:28:04;435.30;2355.20
55151;DHT22;41041;43.162;20.538;2022-08-01T05:30:29;435.30;2355.20
55151;DHT22;41041;43.162;20.538;2022-08-01T05:32:55;410.50;2355.20
55151;DHT22;41041;43.162;20.538;2022-08-01T05:35:21;410.50;2355.20
55151;DHT22;41041;43.162;20.538;2022-08-01T05:38:05;435.40;2355.20
55151;DHT22;41041;43.162;20.538;2022-08-01T05:40:31;435.50;2355.20
55151;DHT22;41041;43.162;20.538;2022-08-01T05:42:57;435.30;2355.20
55151;DHT22;41041;43.162;20.538;2022-08-01T05:45:23;435.50;2355.20
55151;DHT22;41041;43.162;20.538;2022-08-01T05:47:48;435.20;2355.20
55151;DHT22;41041;43.162;20.538;2022-08-01T05:50:14;435.20;2355.20
55151;DHT22;41041;43.162;20.538;2022-08-01T05:52:40;435.40;2355.20
55151;DHT22;41041;43.162;20.538;2022-08-01T05:55:06;435.40;2355.20
55151;DHT22;41041;43.162;20.538;2022-08-01T05:57:32;435.20;2355.20
55151;DHT22;41041;43.162;20.538;2022-08-01T05:59:59;435.40;2355.20
55151;DHT22;41041;43.162;20.538;2022-08-01T06:02:25;435.60;2355.20
55151;DHT22;41041;43.162;20.538;2022-08-01T06:04:51;435.40;2355.20
55151;DHT22;41041;43.162;20.538;2022-08-01T06:07:19;435.60;2355.20
55151;DHT22;41041;43.162;20.538;2022-08-01T06:09:45;435.70;2355.20
55151;DHT22;41041;43.162;20.538;2022-08-01T06:12:11;435.70;2355.20
55151;DHT22;41041;43.162;20.538;2022-08-01T06:14:47;435.80;2355.20
55151;DHT22;41041;43.162;20.538;2022-08-01T06:17:13;436.00;2355.20
55151;DHT22;41041;43.162;20.538;2022-08-01T06:19:38;435.90;2355.20
55151;DHT22;41041;43.162;20.538;2022-08-01T06:22:09;435.80;2355.20
55151;DHT22;41041;43.162;20.538;2022-08-01T06:24:35;436.00;2355.20
55151;DHT22;41041;43.162;20.538;2022-08-01T06:27:02;460.80;2329.60
55151;DHT22;41041;43.162;20.538;2022-08-01T06:29:42;460.90;2355.20
55151;DHT22;41041;43.162;20.538;2022-08-01T06:32:09;461.10;2304.00
55151;DHT22;41041;43.162;20.538;2022-08-01T06:34:35;461.10;2329.60
55151;DHT22;41041;43.162;20.538;2022-08-01T06:37:10;461.20;2278.40
55151;DHT22;41041;43.162;20.538;2022-08-01T06:39:40;461.40;2227.20
55151;DHT22;41041;43.162;20.538;2022-08-01T06:42:06;461.40;2252.80
55151;DHT22;41041;43.162;20.538;2022-08-01T06:51:05;486.60;2201.60
55151;DHT22;41041;43.162;20.538;2022-08-01T06:53:34;486.70;2176.00
55151;DHT22;41041;43.162;20.538;2022-08-01T06:56:01;486.80;2176.00
55151;DHT22;41041;43.162;20.538;2022-08-01T06:58:27;486.90;2150.40
55151;DHT22;41041;43.162;20.538;2022-08-01T07:01:29;487.00;2124.80
55151;DHT22;41041;43.162;20.538;2022-08-01T07:03:54;487.30;2201.60
55151;DHT22;41041;43.162;20.538;2022-08-01T07:06:24;487.20;2176.00
55151;DHT22;41041;43.162;20.538;2022-08-01T07:08:51;487.30;2201.60
55151;DHT22;41041;43.162;20.538;2022-08-01T07:11:18;487.30;2201.60
55151;DHT22;41041;43.162;20.538;2022-08-01T07:13:44;512.10;2201.60
55151;DHT22;41041;43.162;20.538;2022-08-01T07:16:14;512.40;2150.40
55151;DHT22;41041;43.162;20.538;2022-08-01T07:18:40;512.70;2124.80
55151;DHT22;41041;43.162;20.538;2022-08-01T07:21:05;512.80;2073.60
55151;DHT22;41041;43.162;20.538;2022-08-01T07:23:31;512.80;2073.60
55151;DHT22;41041;43.162;20.538;2022-08-01T07:25:57;512.80;2124.80
55151;DHT22;41041;43.162;20.538;2022-08-01T07:28:24;512.90;2124.80
55151;DHT22;41041;43.162;20.538;2022-08-01T07:30:50;537.70;2124.80
55151;DHT22;41041;43.162;20.538;2022-08-01T07:33:16;537.90;2073.60
55151;DHT22;41041;43.162;20.538;2022-08-01T07:36:01;538.00;2022.40
55151;DHT22;41041;43.162;20.538;2022-08-01T07:38:27;538.20;2022.40
55151;DHT22;41041;43.162;20.538;2022-08-01T07:40:53;538.40;1996.80
55151;DHT22;41041;43.162;20.538;2022-08-01T07:43:20;538.50;1996.80
55151;DHT22;41041;43.162;20.538;2022-08-01T07:45:46;563.30;2022.40
55151;DHT22;41041;43.162;20.538;2022-08-01T07:48:12;563.40;1945.60
55151;DHT22;41041;43.162;20.538;2022-08-01T07:50:55;563.50;1971.20
55151;DHT22;41041;43.162;20.538;2022-08-01T07:53:21;563.70;1894.40
55151;DHT22;41041;43.162;20.538;2022-08-01T07:55:47;563.80;1894.40
55151;DHT22;41041;43.162;20.538;2022-08-01T08:00:43;564.00;1868.80
55151;DHT22;41041;43.162;20.538;2022-08-01T08:03:09;564.00;1792.00
55151;DHT22;41041;43.162;20.538;2022-08-01T08:05:35;564.10;1843.20
55151;DHT22;41041;43.162;20.538;2022-08-01T08:08:04;564.00;1843.20
55151;DHT22;41041;43.162;20.538;2022-08-01T08:20:41;589.10;1766.40
55151;DHT22;41041;43.162;20.538;2022-08-01T08:33:08;589.30;1715.20
55151;DHT22;41041;43.162;20.538;2022-08-01T08:39:33;589.50;1689.60
55151;DHT22;41041;43.162;20.538;2022-08-01T08:59:08;614.70;1612.80
55151;DHT22;41041;43.162;20.538;2022-08-01T09:01:40;614.90;1612.80
55151;DHT22;41041;43.162;20.538;2022-08-01T09:04:47;615.00;1612.80
55151;DHT22;41041;43.162;20.538;2022-08-01T09:10:54;615.20;1510.40
55151;DHT22;41041;43.162;20.538;2022-08-01T09:20:42;615.30;1459.20
55151;DHT22;41041;43.162;20.538;2022-08-01T09:26:51;640.20;1459.20
55151;DHT22;41041;43.162;20.538;2022-08-01T09:29:30;640.40;1510.40
55151;DHT22;41041;43.162;20.538;2022-08-01T09:32:22;640.50;1510.40
55151;DHT22;41041;43.162;20.538;2022-08-01T09:46:25;640.80;1433.60
55151;DHT22;41041;43.162;20.538;2022-08-01T10:05:57;640.90;1433.60
55151;DHT22;41041;43.162;20.538;2022-08-01T10:12:04;665.80;1459.20
55151;DHT22;41041;43.162;20.538;2022-08-01T10:14:33;665.90;1459.20
55151;DHT22;41041;43.162;20.538;2022-08-01T10:17:03;665.90;1382.40
55151;DHT22;41041;43.162;20.538;2022-08-01T10:26:52;666.00;1433.60
55151;DHT22;41041;43.162;20.538;2022-08-01T10:29:32;665.80;1433.60
55151;DHT22;41041;43.162;20.538;2022-08-01T10:32:02;665.80;1433.60
55151;DHT22;41041;43.162;20.538;2022-08-01T10:38:01;665.90;1433.60
55151;DHT22;41041;43.162;20.538;2022-08-01T10:44:30;666.00;1408.00
55151;DHT22;41041;43.162;20.538;2022-08-01T10:47:04;666.00;1356.80
55151;DHT22;41041;43.162;20.538;2022-08-01T10:54:02;666.40;1382.40
55151;DHT22;41041;43.162;20.538;2022-08-01T10:56:49;691.20;1356.80
55151;DHT22;41041;43.162;20.538;2022-08-01T11:03:00;691.20;1331.20
55151;DHT22;41041;43.162;20.538;2022-08-01T11:08:54;666.20;1356.80
55151;DHT22;41041;43.162;20.538;2022-08-01T11:11:21;666.20;1356.80
55151;DHT22;41041;43.162;20.538;2022-08-01T11:16:40;691.20;1331.20
55151;DHT22;41041;43.162;20.538;2022-08-01T11:19:07;666.50;1331.20
55151;DHT22;41041;43.162;20.538;2022-08-01T11:28:39;666.20;1382.40
55151;DHT22;41041;43.162;20.538;2022-08-01T11:35:06;666.40;1382.40
55151;DHT22;41041;43.162;20.538;2022-08-01T11:48:30;691.60;1331.20
55151;DHT22;41041;43.162;20.538;2022-08-01T11:58:06;691.40;1305.60
55151;DHT22;41041;43.162;20.538;2022-08-01T12:10:52;691.70;1305.60
55151;DHT22;41041;43.162;20.538;2022-08-01T12:13:18;691.70;1305.60
55151;DHT22;41041;43.162;20.538;2022-08-01T12:15:48;691.70;1228.80
55151;DHT22;41041;43.162;20.538;2022-08-01T12:28:40;691.70;1305.60
55151;DHT22;41041;43.162;20.538;2022-08-01T12:31:06;691.80;1305.60
55151;DHT22;41041;43.162;20.538;2022-08-01T12:33:31;691.70;1280.00
55151;DHT22;41041;43.162;20.538;2022-08-01T12:39:19;691.70;1254.40
55151;DHT22;41041;43.162;20.538;2022-08-01T12:41:45;692.00;1254.40
55151;DHT22;41041;43.162;20.538;2022-08-01T12:44:14;691.90;1228.80
55151;DHT22;41041;43.162;20.538;2022-08-01T12:46:41;692.00;1254.40
55151;DHT22;41041;43.162;20.538;2022-08-01T12:49:08;716.80;1305.60
55151;DHT22;41041;43.162;20.538;2022-08-01T12:51:34;716.80;1254.40
55151;DHT22;41041;43.162;20.538;2022-08-01T12:53:59;692.10;1254.40
55151;DHT22;41041;43.162;20.538;2022-08-01T12:56:33;692.00;1305.60
55151;DHT22;41041;43.162;20.538;2022-08-01T12:58:59;691.90;1305.60
55151;DHT22;41041;43.162;20.538;2022-08-01T13:01:28;691.90;1305.60
55151;DHT22;41041;43.162;20.538;2022-08-01T13:04:00;692.10;1280.00
55151;DHT22;41041;43.162;20.538;2022-08-01T13:06:28;716.80;1305.60
55151;DHT22;41041;43.162;20.538;2022-08-01T13:08:54;692.10;1280.00
55151;DHT22;41041;43.162;20.538;2022-08-01T13:11:20;692.00;1280.00
55151;DHT22;41041;43.162;20.538;2022-08-01T13:13:48;691.90;1331.20
55151;DHT22;41041;43.162;20.538;2022-08-01T13:16:21;691.80;1356.80
55151;DHT22;41041;43.162;20.538;2022-08-01T13:18:52;692.00;1331.20
55151;DHT22;41041;43.162;20.538;2022-08-01T13:21:18;716.80;1305.60
55151;DHT22;41041;43.162;20.538;2022-08-01T13:24:09;692.10;1280.00
55151;DHT22;41041;43.162;20.538;2022-08-01T13:26:50;692.10;1305.60
55151;DHT22;41041;43.162;20.538;2022-08-01T13:29:21;716.80;1382.40
55151;DHT22;41041;43.162;20.538;2022-08-01T13:31:49;717.10;1305.60
55151;DHT22;41041;43.162;20.538;2022-08-01T13:34:15;717.30;1305.60
55151;DHT22;41041;43.162;20.538;2022-08-01T13:36:41;717.30;1331.20
55151;DHT22;41041;43.162;20.538;2022-08-01T13:42:28;717.00;1356.80
55151;DHT22;41041;43.162;20.538;2022-08-01T13:44:54;692.00;1331.20
55151;DHT22;41041;43.162;20.538;2022-08-01T13:47:20;692.00;1331.20
55151;DHT22;41041;43.162;20.538;2022-08-01T13:49:46;691.80;1356.80
55151;DHT22;41041;43.162;20.538;2022-08-01T13:52:12;691.90;1331.20
55151;DHT22;41041;43.162;20.538;2022-08-01T13:54:37;691.70;1331.20
55151;DHT22;41041;43.162;20.538;2022-08-01T13:57:03;691.70;1331.20
55151;DHT22;41041;43.162;20.538;2022-08-01T13:59:29;691.70;1331.20
55151;DHT22;41041;43.162;20.538;2022-08-01T14:01:57;691.80;1331.20
55151;DHT22;41041;43.162;20.538;2022-08-01T14:04:23;692.00;1305.60
55151;DHT22;41041;43.162;20.538;2022-08-01T14:06:49;692.00;1331.20
55151;DHT22;41041;43.162;20.538;2022-08-01T14:09:14;691.90;1331.20
55151;DHT22;41041;43.162;20.538;2022-08-01T14:11:43;691.90;1331.20
55151;DHT22;41041;43.162;20.538;2022-08-01T14:14:08;691.70;1280.00
55151;DHT22;41041;43.162;20.538;2022-08-01T14:16:34;691.90;1280.00
55151;DHT22;41041;43.162;20.538;2022-08-01T14:19:03;692.00;1254.40
55151;DHT22;41041;43.162;20.538;2022-08-01T14:21:28;692.10;1305.60
55151;DHT22;41041;43.162;20.538;2022-08-01T14:23:54;691.90;1356.80
55151;DHT22;41041;43.162;20.538;2022-08-01T14:26:20;692.10;1356.80
55151;DHT22;41041;43.162;20.538;2022-08-01T14:28:45;717.10;1331.20
55151;DHT22;41041;43.162;20.538;2022-08-01T14:31:11;717.00;1382.40
55151;DHT22;41041;43.162;20.538;2022-08-01T14:44:01;717.50;1280.00
55151;DHT22;41041;43.162;20.538;2022-08-01T14:56:12;717.60;1331.20
55151;DHT22;41041;43.162;20.538;2022-08-01T14:58:38;717.70;1280.00
55151;DHT22;41041;43.162;20.538;2022-08-01T15:01:06;717.40;1305.60
55151;DHT22;41041;43.162;20.538;2022-08-01T15:06:55;717.70;1280.00
55151;DHT22;41041;43.162;20.538;2022-08-01T15:09:20;742.90;1305.60
55151;DHT22;41041;43.162;20.538;2022-08-01T15:14:17;743.30;1254.40
55151;DHT22;41041;43.162;20.538;2022-08-01T15:17:01;768.00;1254.40
55151;DHT22;41041;43.162;20.538;2022-08-01T15:19:27;768.30;1228.80
55151;DHT22;41041;43.162;20.538;2022-08-01T15:21:53;768.10;1254.40
55151;DHT22;41041;43.162;20.538;2022-08-01T15:24:18;743.30;1280.00
55151;DHT22;41041;43.162;20.538;2022-08-01T15:26:44;743.10;1280.00
55151;DHT22;41041;43.162;20.538;2022-08-01T15:29:10;743.00;1305.60
55151;DHT22;41041;43.162;20.538;2022-08-01T15:31:37;743.20;1254.40
55151;DHT22;41041;43.162;20.538;2022-08-01T15:34:03;743.30;1280.00
55151;DHT22;41041;43.162;20.538;2022-08-01T15:36:29;743.00;1305.60
55151;DHT22;41041;43.162;20.538;2022-08-01T15:38:55;742.80;1331.20
55151;DHT22;41041;43.162;20.538;2022-08-01T15:41:21;743.00;1305.60
55151;DHT22;41041;43.162;20.538;2022-08-01T15:43:51;742.80;1305.60
55151;DHT22;41041;43.162;20.538;2022-08-01T15:56:32;743.00;1254.40
55151;DHT22;41041;43.162;20.538;2022-08-01T16:02:50;742.80;1305.60
55151;DHT22;41041;43.162;20.538;2022-08-01T16:08:40;743.00;1254.40
55151;DHT22;41041;43.162;20.538;2022-08-01T16:14:46;742.80;1280.00
55151;DHT22;41041;43.162;20.538;2022-08-01T16:20:34;742.90;1254.40
55151;DHT22;41041;43.162;20.538;2022-08-01T16:23:00;742.90;1280.00
55151;DHT22;41041;43.162;20.538;2022-08-01T16:25:27;743.00;1280.00
55151;DHT22;41041;43.162;20.538;2022-08-01T16:28:31;743.10;1280.00
55151;DHT22;41041;43.162;20.538;2022-08-01T16:34:58;743.00;1228.80
55151;DHT22;41041;43.162;20.538;2022-08-01T16:41:04;743.20;1203.20
55151;DHT22;41041;43.162;20.538;2022-08-01T16:43:30;743.00;1228.80
55151;DHT22;41041;43.162;20.538;2022-08-01T16:45:55;743.00;1228.80
55151;DHT22;41041;43.162;20.538;2022-08-01T16:49:00;743.00;1254.40
55151;DHT22;41041;43.162;20.538;2022-08-01T16:55:11;743.00;1254.40
55151;DHT22;41041;43.162;20.538;2022-08-01T17:01:37;793.90;1177.60
55151;DHT22;41041;43.162;20.538;2022-08-01T17:18:21;717.00;1331.20
55151;DHT22;41041;43.162;20.538;2022-08-01T17:21:25;717.60;1305.60
55151;DHT22;41041;43.162;20.538;2022-08-01T17:34:10;743.30;1254.40
55151;DHT22;41041;43.162;20.538;2022-08-01T17:40:24;743.00;1280.00
55151;DHT22;41041;43.162;20.538;2022-08-01T17:59:11;717.00;1382.40
55151;DHT22;41041;43.162;20.538;2022-08-01T18:01:36;692.10;1382.40
55151;DHT22;41041;43.162;20.538;2022-08-01T18:07:23;691.70;1408.00
55151;DHT22;41041;43.162;20.538;2022-08-01T18:09:49;691.50;1433.60
55151;DHT22;41041;43.162;20.538;2022-08-01T18:12:15;691.40;1408.00
55151;DHT22;41041;43.162;20.538;2022-08-01T18:18:10;666.50;1484.80
55151;DHT22;41041;43.162;20.538;2022-08-01T18:20:38;666.20;1459.20
55151;DHT22;41041;43.162;20.538;2022-08-01T18:23:12;666.10;1484.80
55151;DHT22;41041;43.162;20.538;2022-08-01T18:46:28;640.20;1561.60
55151;DHT22;41041;43.162;20.538;2022-08-01T18:52:41;615.30;1561.60
55151;DHT22;41041;43.162;20.538;2022-08-01T18:58:59;640.30;1561.60
55151;DHT22;41041;43.162;20.538;2022-08-01T19:22:08;614.70;1638.40
55151;DHT22;41041;43.162;20.538;2022-08-01T20:06:31;589.50;1740.80
55151;DHT22;41041;43.162;20.538;2022-08-01T20:12:35;589.30;1740.80
55151;DHT22;41041;43.162;20.538;2022-08-01T20:18:26;589.30;1766.40
55151;DHT22;41041;43.162;20.538;2022-08-01T20:24:24;589.30;1766.40
55151;DHT22;41041;43.162;20.538;2022-08-01T20:36:50;589.10;1792.00
55151;DHT22;41041;43.162;20.538;2022-08-01T20:39:18;588.90;1792.00
55151;DHT22;41041;43.162;20.538;2022-08-01T20:41:48;588.90;1817.60
55151;DHT22;41041;43.162;20.538;2022-08-01T20:44:20;564.00;1843.20
55151;DHT22;41041;43.162;20.538;2022-08-01T20:46:47;564.00;1868.80
55151;DHT22;41041;43.162;20.538;2022-08-01T20:49:14;563.50;1894.40
55151;DHT22;41041;43.162;20.538;2022-08-01T20:51:40;563.70;1868.80
55151;DHT22;41041;43.162;20.538;2022-08-01T20:54:06;563.80;1868.80
55151;DHT22;41041;43.162;20.538;2022-08-01T21:06:55;563.90;1868.80
55151;DHT22;41041;43.162;20.538;2022-08-01T21:09:24;563.90;1894.40
55151;DHT22;41041;43.162;20.538;2022-08-01T21:12:01;563.80;1894.40
55151;DHT22;41041;43.162;20.538;2022-08-01T21:36:02;563.30;1894.40
55151;DHT22;41041;43.162;20.538;2022-08-01T21:42:02;538.30;1920.00
55151;DHT22;41041;43.162;20.538;2022-08-01T22:02:07;538.40;1920.00
55151;DHT22;41041;43.162;20.538;2022-08-01T22:08:50;538.30;1945.60
55151;DHT22;41041;43.162;20.538;2022-08-01T22:14:53;537.90;1971.20
55151;DHT22;41041;43.162;20.538;2022-08-01T22:24:35;537.90;1996.80
55151;DHT22;41041;43.162;20.538;2022-08-01T22:34:10;538.00;1945.60
55151;DHT22;41041;43.162;20.538;2022-08-01T23:05:24;512.00;2099.20
55151;DHT22;41041;43.162;20.538;2022-08-01T23:07:53;487.20;2124.80
55151;DHT22;41041;43.162;20.538;2022-08-01T23:10:32;487.10;2150.40
55151;DHT22;41041;43.162;20.538;2022-08-01T23:20:23;487.20;2124.80
55151;DHT22;41041;43.162;20.538;2022-08-01T23:26:03;486.70;2227.20
55151;DHT22;41041;43.162;20.538;2022-08-01T23:31:58;486.40;2252.80
55151;DHT22;41041;43.162;20.538;2022-08-01T23:37:46;486.70;2227.20
